Terminal Aerodrome Forecast
Issued by NWS

Home | Current Version | Previous Version | Text Only | Print | Product List | Glossary On
Versions: 1 2 3 4 5 6 7 8 9 10 11 12 13 14 15 16 17 18
000
FTUS43 KIND 180500
TAFLAF
TAF
KLAF 180523Z 1806/1906 04003KT P6SM SCT100
     FM180700 00000KT 3SM BR BCFG SCT100
     FM181300 07006KT P6SM SCT035
      AMD LTD TO CLD VIS AND WIND TIL 181300=

USA.gov is the U.S. government's official web portal to all federal, state and local government web resources and services.